sensor_id;sensor_type;location;lat;lon;timestamp;temperature;humidity
1021;DHT22;499;42.648;23.270;2022-10-17T00:00:11;6.80;97.70
1021;DHT22;499;42.648;23.270;2022-10-17T00:02:38;6.70;98.30
1021;DHT22;499;42.648;23.270;2022-10-17T00:05:06;6.80;97.80
1021;DHT22;499;42.648;23.270;2022-10-17T00:07:33;6.70;97.50
1021;DHT22;499;42.648;23.270;2022-10-17T00:10:02;6.70;98.40
1021;DHT22;499;42.648;23.270;2022-10-17T00:12:29;6.60;98.80
1021;DHT22;499;42.648;23.270;2022-10-17T00:14:57;6.50;99.90
1021;DHT22;499;42.648;23.270;2022-10-17T00:17:24;6.60;99.90
1021;DHT22;499;42.648;23.270;2022-10-17T00:19:51;6.50;99.90
1021;DHT22;499;42.648;23.270;2022-10-17T00:22:18;6.60;99.90
1021;DHT22;499;42.648;23.270;2022-10-17T00:24:45;6.60;99.90
1021;DHT22;499;42.648;23.270;2022-10-17T00:27:14;6.50;99.90
1021;DHT22;499;42.648;23.270;2022-10-17T00:29:41;6.80;99.90
1021;DHT22;499;42.648;23.270;2022-10-17T00:32:08;6.50;99.90
1021;DHT22;499;42.648;23.270;2022-10-17T00:34:35;6.50;99.90
1021;DHT22;499;42.648;23.270;2022-10-17T00:37:02;6.50;99.90
1021;DHT22;499;42.648;23.270;2022-10-17T00:39:29;6.50;99.90
1021;DHT22;499;42.648;23.270;2022-10-17T00:41:56;6.60;99.90
1021;DHT22;499;42.648;23.270;2022-10-17T00:47:54;6.40;99.90
1021;DHT22;499;42.648;23.270;2022-10-17T00:50:23;6.20;99.90
1021;DHT22;499;42.648;23.270;2022-10-17T00:52:51;6.20;99.90
1021;DHT22;499;42.648;23.270;2022-10-17T00:55:21;6.10;99.90
1021;DHT22;499;42.648;23.270;2022-10-17T00:57:49;6.20;99.90
1021;DHT22;499;42.648;23.270;2022-10-17T01:00:17;6.20;99.90
1021;DHT22;499;42.648;23.270;2022-10-17T01:02:44;6.20;99.90
1021;DHT22;499;42.648;23.270;2022-10-17T01:05:14;6.20;99.90
1021;DHT22;499;42.648;23.270;2022-10-17T01:07:41;6.20;99.90
1021;DHT22;499;42.648;23.270;2022-10-17T01:10:10;6.20;99.90
1021;DHT22;499;42.648;23.270;2022-10-17T01:12:48;6.30;99.90
1021;DHT22;499;42.648;23.270;2022-10-17T01:15:26;6.30;99.90
1021;DHT22;499;42.648;23.270;2022-10-17T01:18:06;6.20;99.90
1021;DHT22;499;42.648;23.270;2022-10-17T01:21:09;6.10;99.90
1021;DHT22;499;42.648;23.270;2022-10-17T01:24:11;6.10;99.90
1021;DHT22;499;42.648;23.270;2022-10-17T01:26:58;6.10;99.90
1021;DHT22;499;42.648;23.270;2022-10-17T01:29:45;6.00;99.90
1021;DHT22;499;42.648;23.270;2022-10-17T01:32:19;6.00;99.90
1021;DHT22;499;42.648;23.270;2022-10-17T01:34:53;6.10;99.90
1021;DHT22;499;42.648;23.270;2022-10-17T01:37:27;6.00;99.90
1021;DHT22;499;42.648;23.270;2022-10-17T01:40:01;6.00;99.90
1021;DHT22;499;42.648;23.270;2022-10-17T01:42:33;6.00;99.90
1021;DHT22;499;42.648;23.270;2022-10-17T01:45:07;6.10;99.90
1021;DHT22;499;42.648;23.270;2022-10-17T01:47:37;6.10;99.90
1021;DHT22;499;42.648;23.270;2022-10-17T01:50:11;6.00;99.90
1021;DHT22;499;42.648;23.270;2022-10-17T01:52:43;6.00;99.90
1021;DHT22;499;42.648;23.270;2022-10-17T01:55:15;5.90;99.90
1021;DHT22;499;42.648;23.270;2022-10-17T01:57:48;5.80;99.90
1021;DHT22;499;42.648;23.270;2022-10-17T02:00:20;5.90;99.90
1021;DHT22;499;42.648;23.270;2022-10-17T02:02:52;5.80;99.90
1021;DHT22;499;42.648;23.270;2022-10-17T02:05:25;5.80;99.90
1021;DHT22;499;42.648;23.270;2022-10-17T02:07:54;5.80;99.90
1021;DHT22;499;42.648;23.270;2022-10-17T02:10:28;5.80;99.90
1021;DHT22;499;42.648;23.270;2022-10-17T02:13:03;5.90;99.90
1021;DHT22;499;42.648;23.270;2022-10-17T02:15:53;5.90;99.90
1021;DHT22;499;42.648;23.270;2022-10-17T02:18:38;5.80;99.90
1021;DHT22;499;42.648;23.270;2022-10-17T02:21:10;5.80;99.90
1021;DHT22;499;42.648;23.270;2022-10-17T02:23:47;5.80;99.90
1021;DHT22;499;42.648;23.270;2022-10-17T02:26:23;5.80;99.90
1021;DHT22;499;42.648;23.270;2022-10-17T02:29:01;5.80;99.90
1021;DHT22;499;42.648;23.270;2022-10-17T02:31:33;5.90;99.90
1021;DHT22;499;42.648;23.270;2022-10-17T02:34:08;5.80;99.90
1021;DHT22;499;42.648;23.270;2022-10-17T02:36:40;5.80;99.90
1021;DHT22;499;42.648;23.270;2022-10-17T02:39:08;5.80;99.90
1021;DHT22;499;42.648;23.270;2022-10-17T02:41:38;5.70;99.90
1021;DHT22;499;42.648;23.270;2022-10-17T02:44:06;5.70;99.90
1021;DHT22;499;42.648;23.270;2022-10-17T02:46:35;5.80;99.90
1021;DHT22;499;42.648;23.270;2022-10-17T02:49:09;5.80;99.90
1021;DHT22;499;42.648;23.270;2022-10-17T02:51:42;5.80;99.90
1021;DHT22;499;42.648;23.270;2022-10-17T02:54:16;5.90;99.90
1021;DHT22;499;42.648;23.270;2022-10-17T02:56:49;6.00;99.30
1021;DHT22;499;42.648;23.270;2022-10-17T02:59:20;5.70;99.50
1021;DHT22;499;42.648;23.270;2022-10-17T03:01:49;5.60;99.90
1021;DHT22;499;42.648;23.270;2022-10-17T03:04:18;5.60;99.90
1021;DHT22;499;42.648;23.270;2022-10-17T03:06:46;5.60;99.90
1021;DHT22;499;42.648;23.270;2022-10-17T03:09:14;5.50;99.90
1021;DHT22;499;42.648;23.270;2022-10-17T03:11:41;5.60;99.90
1021;DHT22;499;42.648;23.270;2022-10-17T03:14:09;5.60;99.10
1021;DHT22;499;42.648;23.270;2022-10-17T03:16:36;5.60;98.40
1021;DHT22;499;42.648;23.270;2022-10-17T03:19:03;5.60;98.40
1021;DHT22;499;42.648;23.270;2022-10-17T03:21:31;5.60;98.10
1021;DHT22;499;42.648;23.270;2022-10-17T03:24:01;5.50;98.40
1021;DHT22;499;42.648;23.270;2022-10-17T03:26:28;5.60;97.70
1021;DHT22;499;42.648;23.270;2022-10-17T03:28:55;5.50;97.20
1021;DHT22;499;42.648;23.270;2022-10-17T03:31:22;5.50;97.00
1021;DHT22;499;42.648;23.270;2022-10-17T03:33:49;5.40;97.10
1021;DHT22;499;42.648;23.270;2022-10-17T03:36:18;5.40;97.20
1021;DHT22;499;42.648;23.270;2022-10-17T03:38:46;5.40;97.90
1021;DHT22;499;42.648;23.270;2022-10-17T03:41:13;5.50;97.20
1021;DHT22;499;42.648;23.270;2022-10-17T03:43:41;5.50;96.70
1021;DHT22;499;42.648;23.270;2022-10-17T03:46:08;5.50;96.30
1021;DHT22;499;42.648;23.270;2022-10-17T03:48:35;5.40;96.70
1021;DHT22;499;42.648;23.270;2022-10-17T03:51:04;5.40;96.50
1021;DHT22;499;42.648;23.270;2022-10-17T03:53:32;5.30;96.50
1021;DHT22;499;42.648;23.270;2022-10-17T03:56:10;5.20;96.70
1021;DHT22;499;42.648;23.270;2022-10-17T03:58:38;5.10;97.80
1021;DHT22;499;42.648;23.270;2022-10-17T04:01:06;5.10;98.90
1021;DHT22;499;42.648;23.270;2022-10-17T04:03:33;5.10;98.90
1021;DHT22;499;42.648;23.270;2022-10-17T04:06:01;5.10;99.10
1021;DHT22;499;42.648;23.270;2022-10-17T04:08:29;5.10;99.90
1021;DHT22;499;42.648;23.270;2022-10-17T04:10:57;5.10;99.90
1021;DHT22;499;42.648;23.270;2022-10-17T04:13:27;5.10;99.90
1021;DHT22;499;42.648;23.270;2022-10-17T04:15:55;5.20;99.90
1021;DHT22;499;42.648;23.270;2022-10-17T04:18:22;5.20;99.90
1021;DHT22;499;42.648;23.270;2022-10-17T04:20:49;5.20;99.90
1021;DHT22;499;42.648;23.270;2022-10-17T04:23:17;5.20;99.80
1021;DHT22;499;42.648;23.270;2022-10-17T04:25:44;5.20;99.90
1021;DHT22;499;42.648;23.270;2022-10-17T04:28:11;5.10;99.90
1021;DHT22;499;42.648;23.270;2022-10-17T04:30:40;5.20;99.90
1021;DHT22;499;42.648;23.270;2022-10-17T04:33:07;5.20;99.90
1021;DHT22;499;42.648;23.270;2022-10-17T04:35:34;5.20;99.90
1021;DHT22;499;42.648;23.270;2022-10-17T04:38:01;5.20;99.90
1021;DHT22;499;42.648;23.270;2022-10-17T04:40:29;5.20;99.90
1021;DHT22;499;42.648;23.270;2022-10-17T04:42:56;5.10;99.90
1021;DHT22;499;42.648;23.270;2022-10-17T04:45:23;5.10;99.90
1021;DHT22;499;42.648;23.270;2022-10-17T04:47:51;5.10;99.90
1021;DHT22;499;42.648;23.270;2022-10-17T04:50:19;5.00;99.90
1021;DHT22;499;42.648;23.270;2022-10-17T04:52:46;4.90;99.90
1021;DHT22;499;42.648;23.270;2022-10-17T04:55:13;5.00;99.90
1021;DHT22;499;42.648;23.270;2022-10-17T04:57:40;4.90;99.90
1021;DHT22;499;42.648;23.270;2022-10-17T05:00:08;4.90;99.90
1021;DHT22;499;42.648;23.270;2022-10-17T05:02:35;5.00;99.90
1021;DHT22;499;42.648;23.270;2022-10-17T05:05:04;5.10;99.90
1021;DHT22;499;42.648;23.270;2022-10-17T05:07:31;5.00;99.90
1021;DHT22;499;42.648;23.270;2022-10-17T05:09:58;5.10;99.90
1021;DHT22;499;42.648;23.270;2022-10-17T05:12:25;5.10;99.90
1021;DHT22;499;42.648;23.270;2022-10-17T05:14:52;5.10;99.90
1021;DHT22;499;42.648;23.270;2022-10-17T05:17:19;5.20;99.90
1021;DHT22;499;42.648;23.270;2022-10-17T05:19:46;5.30;99.90
1021;DHT22;499;42.648;23.270;2022-10-17T05:22:15;5.40;99.90
1021;DHT22;499;42.648;23.270;2022-10-17T05:24:42;5.80;99.90
1021;DHT22;499;42.648;23.270;2022-10-17T05:27:09;6.20;99.90
1021;DHT22;499;42.648;23.270;2022-10-17T05:29:36;6.30;99.90
1021;DHT22;499;42.648;23.270;2022-10-17T05:32:03;6.50;99.90
1021;DHT22;499;42.648;23.270;2022-10-17T05:34:32;6.50;99.50
1021;DHT22;499;42.648;23.270;2022-10-17T05:37:00;6.50;98.20
1021;DHT22;499;42.648;23.270;2022-10-17T05:39:28;6.60;97.60
1021;DHT22;499;42.648;23.270;2022-10-17T05:41:55;6.70;97.20
1021;DHT22;499;42.648;23.270;2022-10-17T05:44:23;6.60;95.70
1021;DHT22;499;42.648;23.270;2022-10-17T05:46:50;6.60;95.70
1021;DHT22;499;42.648;23.270;2022-10-17T05:49:17;6.60;95.70
1021;DHT22;499;42.648;23.270;2022-10-17T05:51:44;6.60;95.70
1021;DHT22;499;42.648;23.270;2022-10-17T05:54:11;6.80;95.20
1021;DHT22;499;42.648;23.270;2022-10-17T05:56:39;6.90;94.30
1021;DHT22;499;42.648;23.270;2022-10-17T05:59:06;6.80;94.20
1021;DHT22;499;42.648;23.270;2022-10-17T06:01:33;6.90;94.30
1021;DHT22;499;42.648;23.270;2022-10-17T06:04:00;7.00;93.90
1021;DHT22;499;42.648;23.270;2022-10-17T06:06:28;7.10;93.50
1021;DHT22;499;42.648;23.270;2022-10-17T06:08:55;7.10;92.00
1021;DHT22;499;42.648;23.270;2022-10-17T06:11:22;6.90;92.00
1021;DHT22;499;42.648;23.270;2022-10-17T06:13:51;7.00;92.70
1021;DHT22;499;42.648;23.270;2022-10-17T06:16:18;7.00;93.10
1021;DHT22;499;42.648;23.270;2022-10-17T06:18:45;6.90;93.00
1021;DHT22;499;42.648;23.270;2022-10-17T06:21:14;6.80;93.60
1021;DHT22;499;42.648;23.270;2022-10-17T06:23:43;6.90;93.80
1021;DHT22;499;42.648;23.270;2022-10-17T06:26:11;6.80;93.10
1021;DHT22;499;42.648;23.270;2022-10-17T06:28:38;6.80;93.40
1021;DHT22;499;42.648;23.270;2022-10-17T06:31:09;6.90;93.00
1021;DHT22;499;42.648;23.270;2022-10-17T06:33:37;6.90;92.10
1021;DHT22;499;42.648;23.270;2022-10-17T06:36:05;6.90;92.90
1021;DHT22;499;42.648;23.270;2022-10-17T06:38:33;7.00;91.90
1021;DHT22;499;42.648;23.270;2022-10-17T06:41:04;6.90;91.90
1021;DHT22;499;42.648;23.270;2022-10-17T06:43:33;6.90;92.80
1021;DHT22;499;42.648;23.270;2022-10-17T06:46:00;7.00;92.90
1021;DHT22;499;42.648;23.270;2022-10-17T06:48:29;7.00;92.60
1021;DHT22;499;42.648;23.270;2022-10-17T06:50:58;7.20;91.50
1021;DHT22;499;42.648;23.270;2022-10-17T06:53:26;7.30;91.50
1021;DHT22;499;42.648;23.270;2022-10-17T06:55:54;7.40;92.10
1021;DHT22;499;42.648;23.270;2022-10-17T06:58:26;7.50;90.80
1021;DHT22;499;42.648;23.270;2022-10-17T07:00:57;7.70;92.20
1021;DHT22;499;42.648;23.270;2022-10-17T07:03:25;7.80;91.90
1021;DHT22;499;42.648;23.270;2022-10-17T07:05:54;7.80;90.30
1021;DHT22;499;42.648;23.270;2022-10-17T07:08:22;7.70;90.10
1021;DHT22;499;42.648;23.270;2022-10-17T07:10:50;7.90;88.70
1021;DHT22;499;42.648;23.270;2022-10-17T07:13:17;8.10;86.40
1021;DHT22;499;42.648;23.270;2022-10-17T07:15:44;8.20;83.60
1021;DHT22;499;42.648;23.270;2022-10-17T07:18:12;8.10;82.10
1021;DHT22;499;42.648;23.270;2022-10-17T07:20:39;8.20;84.70
1021;DHT22;499;42.648;23.270;2022-10-17T07:23:08;8.30;81.80
1021;DHT22;499;42.648;23.270;2022-10-17T07:25:35;8.40;78.30
1021;DHT22;499;42.648;23.270;2022-10-17T07:28:03;8.50;76.70
1021;DHT22;499;42.648;23.270;2022-10-17T07:30:30;8.50;76.10
1021;DHT22;499;42.648;23.270;2022-10-17T07:32:57;8.50;80.80
1021;DHT22;499;42.648;23.270;2022-10-17T07:35:24;8.60;82.20
1021;DHT22;499;42.648;23.270;2022-10-17T07:37:51;8.70;81.20
1021;DHT22;499;42.648;23.270;2022-10-17T07:40:19;8.70;77.80
1021;DHT22;499;42.648;23.270;2022-10-17T07:42:46;8.70;74.60
1021;DHT22;499;42.648;23.270;2022-10-17T07:45:13;8.90;79.60
1021;DHT22;499;42.648;23.270;2022-10-17T07:47:41;8.80;75.00
1021;DHT22;499;42.648;23.270;2022-10-17T07:50:09;8.70;73.50
1021;DHT22;499;42.648;23.270;2022-10-17T07:52:36;8.80;73.40
1021;DHT22;499;42.648;23.270;2022-10-17T07:55:04;9.00;76.50
1021;DHT22;499;42.648;23.270;2022-10-17T07:57:33;9.00;73.90
1021;DHT22;499;42.648;23.270;2022-10-17T08:00:00;9.10;73.20
1021;DHT22;499;42.648;23.270;2022-10-17T08:02:27;9.30;69.80
1021;DHT22;499;42.648;23.270;2022-10-17T08:04:54;9.40;66.90
1021;DHT22;499;42.648;23.270;2022-10-17T08:07:21;9.50;68.90
1021;DHT22;499;42.648;23.270;2022-10-17T08:09:48;9.50;71.00
1021;DHT22;499;42.648;23.270;2022-10-17T08:12:16;9.60;68.20
1021;DHT22;499;42.648;23.270;2022-10-17T08:14:44;9.60;69.90
1021;DHT22;499;42.648;23.270;2022-10-17T08:17:12;9.70;67.70
1021;DHT22;499;42.648;23.270;2022-10-17T08:19:39;10.00;64.20
1021;DHT22;499;42.648;23.270;2022-10-17T08:22:06;10.10;62.30
1021;DHT22;499;42.648;23.270;2022-10-17T08:24:34;10.30;57.70
1021;DHT22;499;42.648;23.270;2022-10-17T08:27:01;10.40;54.20
1021;DHT22;499;42.648;23.270;2022-10-17T08:29:33;10.50;50.40
1021;DHT22;499;42.648;23.270;2022-10-17T08:32:01;10.60;48.90
1021;DHT22;499;42.648;23.270;2022-10-17T08:34:28;10.60;50.20
1021;DHT22;499;42.648;23.270;2022-10-17T08:36:55;10.80;50.90
1021;DHT22;499;42.648;23.270;2022-10-17T08:39:22;10.90;45.90
1021;DHT22;499;42.648;23.270;2022-10-17T08:42:00;11.10;39.10
1021;DHT22;499;42.648;23.270;2022-10-17T08:44:38;11.30;37.30
1021;DHT22;499;42.648;23.270;2022-10-17T08:47:13;11.50;34.70
1021;DHT22;499;42.648;23.270;2022-10-17T08:49:49;11.50;35.50
1021;DHT22;499;42.648;23.270;2022-10-17T08:52:24;11.60;36.60
1021;DHT22;499;42.648;23.270;2022-10-17T08:54:53;11.80;30.40
1021;DHT22;499;42.648;23.270;2022-10-17T08:57:20;11.90;29.10
1021;DHT22;499;42.648;23.270;2022-10-17T08:59:49;12.10;25.90
1021;DHT22;499;42.648;23.270;2022-10-17T09:02:35;12.20;24.80
1021;DHT22;499;42.648;23.270;2022-10-17T09:05:27;12.40;22.10
1021;DHT22;499;42.648;23.270;2022-10-17T09:08:05;12.60;25.00
1021;DHT22;499;42.648;23.270;2022-10-17T09:10:40;12.70;22.80
1021;DHT22;499;42.648;23.270;2022-10-17T09:13:21;12.80;21.30
1021;DHT22;499;42.648;23.270;2022-10-17T09:15:59;12.90;21.30
1021;DHT22;499;42.648;23.270;2022-10-17T09:18:32;13.00;21.40
1021;DHT22;499;42.648;23.270;2022-10-17T09:21:07;13.00;20.10
1021;DHT22;499;42.648;23.270;2022-10-17T09:23:39;13.10;19.90
1021;DHT22;499;42.648;23.270;2022-10-17T09:26:09;13.30;21.60
1021;DHT22;499;42.648;23.270;2022-10-17T09:28:38;13.20;21.30
1021;DHT22;499;42.648;23.270;2022-10-17T09:31:11;13.40;19.70
1021;DHT22;499;42.648;23.270;2022-10-17T09:33:43;13.40;19.20
1021;DHT22;499;42.648;23.270;2022-10-17T09:36:13;13.40;19.90
1021;DHT22;499;42.648;23.270;2022-10-17T09:38:43;13.50;19.50
1021;DHT22;499;42.648;23.270;2022-10-17T09:41:17;13.50;19.70
1021;DHT22;499;42.648;23.270;2022-10-17T09:43:44;13.60;19.70
1021;DHT22;499;42.648;23.270;2022-10-17T09:46:16;13.60;17.90
1021;DHT22;499;42.648;23.270;2022-10-17T09:48:49;13.60;15.90
1021;DHT22;499;42.648;23.270;2022-10-17T09:51:17;13.70;14.00
1021;DHT22;499;42.648;23.270;2022-10-17T09:53:49;13.90;13.70
1021;DHT22;499;42.648;23.270;2022-10-17T09:56:18;14.00;12.50
1021;DHT22;499;42.648;23.270;2022-10-17T09:58:48;14.20;12.10
1021;DHT22;499;42.648;23.270;2022-10-17T10:01:20;14.20;12.40
1021;DHT22;499;42.648;23.270;2022-10-17T10:04:07;14.30;12.60
1021;DHT22;499;42.648;23.270;2022-10-17T10:06:36;14.40;13.20
1021;DHT22;499;42.648;23.270;2022-10-17T10:09:04;14.40;12.40
1021;DHT22;499;42.648;23.270;2022-10-17T10:11:46;14.40;12.60
1021;DHT22;499;42.648;23.270;2022-10-17T10:14:20;14.40;13.10
1021;DHT22;499;42.648;23.270;2022-10-17T10:16:48;14.50;12.90
1021;DHT22;499;42.648;23.270;2022-10-17T10:19:25;14.60;12.50
1021;DHT22;499;42.648;23.270;2022-10-17T10:21:55;14.70;10.90
1021;DHT22;499;42.648;23.270;2022-10-17T10:24:22;14.80;13.30
1021;DHT22;499;42.648;23.270;2022-10-17T10:26:51;14.90;11.10
1021;DHT22;499;42.648;23.270;2022-10-17T10:29:22;14.90;10.70
1021;DHT22;499;42.648;23.270;2022-10-17T10:31:52;15.00;10.30
1021;DHT22;499;42.648;23.270;2022-10-17T10:34:23;15.00;10.80
1021;DHT22;499;42.648;23.270;2022-10-17T10:36:55;15.20;9.40
1021;DHT22;499;42.648;23.270;2022-10-17T10:39:34;15.20;9.60
1021;DHT22;499;42.648;23.270;2022-10-17T10:42:05;15.20;9.90
1021;DHT22;499;42.648;23.270;2022-10-17T10:44:35;15.10;9.60
1021;DHT22;499;42.648;23.270;2022-10-17T10:47:20;15.10;10.20
1021;DHT22;499;42.648;23.270;2022-10-17T10:49:52;15.30;8.70
1021;DHT22;499;42.648;23.270;2022-10-17T10:52:29;15.30;9.30
1021;DHT22;499;42.648;23.270;2022-10-17T10:55:15;15.30;9.90
1021;DHT22;499;42.648;23.270;2022-10-17T10:57:44;15.40;8.60
1021;DHT22;499;42.648;23.270;2022-10-17T11:00:15;15.50;8.40
1021;DHT22;499;42.648;23.270;2022-10-17T11:02:50;15.50;8.50
1021;DHT22;499;42.648;23.270;2022-10-17T11:05:25;15.60;8.70
1021;DHT22;499;42.648;23.270;2022-10-17T11:08:02;15.60;8.90
1021;DHT22;499;42.648;23.270;2022-10-17T11:10:36;15.60;8.00
1021;DHT22;499;42.648;23.270;2022-10-17T11:13:08;15.60;9.20
1021;DHT22;499;42.648;23.270;2022-10-17T11:15:43;15.60;8.50
1021;DHT22;499;42.648;23.270;2022-10-17T11:18:21;15.70;9.20
1021;DHT22;499;42.648;23.270;2022-10-17T11:20:55;15.70;8.70
1021;DHT22;499;42.648;23.270;2022-10-17T11:23:27;15.70;10.40
1021;DHT22;499;42.648;23.270;2022-10-17T11:25:58;15.80;9.30
1021;DHT22;499;42.648;23.270;2022-10-17T11:28:27;15.80;8.80
1021;DHT22;499;42.648;23.270;2022-10-17T11:30:58;15.80;7.50
1021;DHT22;499;42.648;23.270;2022-10-17T11:33:29;15.80;7.20
1021;DHT22;499;42.648;23.270;2022-10-17T11:36:04;15.90;8.80
1021;DHT22;499;42.648;23.270;2022-10-17T11:38:40;15.90;6.80
1021;DHT22;499;42.648;23.270;2022-10-17T11:41:12;16.00;6.70
1021;DHT22;499;42.648;23.270;2022-10-17T11:43:44;16.00;7.30
1021;DHT22;499;42.648;23.270;2022-10-17T11:46:17;16.10;7.40
1021;DHT22;499;42.648;23.270;2022-10-17T11:49:00;16.10;6.80
1021;DHT22;499;42.648;23.270;2022-10-17T11:51:35;16.20;5.20
1021;DHT22;499;42.648;23.270;2022-10-17T11:54:09;16.30;6.10
1021;DHT22;499;42.648;23.270;2022-10-17T11:56:41;16.30;6.20
1021;DHT22;499;42.648;23.270;2022-10-17T11:59:30;16.40;6.40
1021;DHT22;499;42.648;23.270;2022-10-17T12:02:03;16.40;5.40
1021;DHT22;499;42.648;23.270;2022-10-17T12:04:44;16.50;3.60
1021;DHT22;499;42.648;23.270;2022-10-17T12:07:23;16.60;5.40
1021;DHT22;499;42.648;23.270;2022-10-17T12:09:57;16.60;5.30
1021;DHT22;499;42.648;23.270;2022-10-17T12:12:27;16.50;6.30
1021;DHT22;499;42.648;23.270;2022-10-17T12:15:26;16.60;6.10
1021;DHT22;499;42.648;23.270;2022-10-17T12:17:54;16.70;6.60
1021;DHT22;499;42.648;23.270;2022-10-17T12:20:28;16.70;6.50
1021;DHT22;499;42.648;23.270;2022-10-17T12:25:49;16.80;5.10
1021;DHT22;499;42.648;23.270;2022-10-17T12:28:25;16.70;5.30
1021;DHT22;499;42.648;23.270;2022-10-17T12:30:58;16.70;5.60
1021;DHT22;499;42.648;23.270;2022-10-17T12:33:32;16.70;5.70
1021;DHT22;499;42.648;23.270;2022-10-17T12:42:52;16.80;5.90
1021;DHT22;499;42.648;23.270;2022-10-17T12:45:47;16.80;5.10
1021;DHT22;499;42.648;23.270;2022-10-17T12:51:15;16.90;5.40
1021;DHT22;499;42.648;23.270;2022-10-17T12:53:48;16.90;6.60
1021;DHT22;499;42.648;23.270;2022-10-17T12:56:19;17.00;5.80
1021;DHT22;499;42.648;23.270;2022-10-17T12:58:49;17.00;5.70
1021;DHT22;499;42.648;23.270;2022-10-17T13:01:20;17.10;6.10
1021;DHT22;499;42.648;23.270;2022-10-17T13:03:49;17.00;5.40
1021;DHT22;499;42.648;23.270;2022-10-17T13:06:20;17.10;5.20
1021;DHT22;499;42.648;23.270;2022-10-17T13:08:52;17.10;5.60
1021;DHT22;499;42.648;23.270;2022-10-17T13:11:23;17.00;5.90
1021;DHT22;499;42.648;23.270;2022-10-17T13:13:56;17.00;5.40
1021;DHT22;499;42.648;23.270;2022-10-17T13:16:27;17.00;4.80
1021;DHT22;499;42.648;23.270;2022-10-17T13:18:55;17.00;5.20
1021;DHT22;499;42.648;23.270;2022-10-17T13:21:22;17.10;5.30
1021;DHT22;499;42.648;23.270;2022-10-17T13:23:50;17.10;5.10
1021;DHT22;499;42.648;23.270;2022-10-17T13:26:20;17.10;5.20
1021;DHT22;499;42.648;23.270;2022-10-17T13:29:02;17.00;5.70
1021;DHT22;499;42.648;23.270;2022-10-17T13:31:31;17.00;6.00
1021;DHT22;499;42.648;23.270;2022-10-17T13:34:01;16.90;5.20
1021;DHT22;499;42.648;23.270;2022-10-17T13:36:30;16.90;4.70
1021;DHT22;499;42.648;23.270;2022-10-17T13:38:58;16.90;5.50
1021;DHT22;499;42.648;23.270;2022-10-17T13:41:27;16.80;5.40
1021;DHT22;499;42.648;23.270;2022-10-17T13:43:56;16.90;5.40
1021;DHT22;499;42.648;23.270;2022-10-17T13:46:28;16.90;5.80
1021;DHT22;499;42.648;23.270;2022-10-17T13:48:56;16.90;6.90
1021;DHT22;499;42.648;23.270;2022-10-17T13:51:24;16.90;6.30
1021;DHT22;499;42.648;23.270;2022-10-17T13:53:53;16.90;7.90
1021;DHT22;499;42.648;23.270;2022-10-17T13:56:21;16.90;8.70
1021;DHT22;499;42.648;23.270;2022-10-17T13:58:51;16.90;9.10
1021;DHT22;499;42.648;23.270;2022-10-17T14:01:21;16.90;8.70
1021;DHT22;499;42.648;23.270;2022-10-17T14:03:51;16.90;8.80
1021;DHT22;499;42.648;23.270;2022-10-17T14:06:19;16.90;9.40
1021;DHT22;499;42.648;23.270;2022-10-17T14:08:53;16.90;9.40
1021;DHT22;499;42.648;23.270;2022-10-17T14:11:29;16.80;9.00
1021;DHT22;499;42.648;23.270;2022-10-17T14:13:58;16.70;9.40
1021;DHT22;499;42.648;23.270;2022-10-17T14:16:32;16.50;10.40
1021;DHT22;499;42.648;23.270;2022-10-17T14:19:01;16.30;11.60
1021;DHT22;499;42.648;23.270;2022-10-17T14:21:28;16.10;11.50
1021;DHT22;499;42.648;23.270;2022-10-17T14:24:21;15.90;12.90
1021;DHT22;499;42.648;23.270;2022-10-17T14:26:53;15.80;12.40
1021;DHT22;499;42.648;23.270;2022-10-17T14:29:25;15.80;12.70
1021;DHT22;499;42.648;23.270;2022-10-17T14:31:58;15.60;12.70
1021;DHT22;499;42.648;23.270;2022-10-17T14:34:31;15.60;12.60
1021;DHT22;499;42.648;23.270;2022-10-17T14:36:59;15.50;12.60
1021;DHT22;499;42.648;23.270;2022-10-17T14:39:27;15.40;13.20
1021;DHT22;499;42.648;23.270;2022-10-17T14:41:54;15.20;13.10
1021;DHT22;499;42.648;23.270;2022-10-17T14:44:25;14.90;14.80
1021;DHT22;499;42.648;23.270;2022-10-17T14:46:56;14.60;14.60
1021;DHT22;499;42.648;23.270;2022-10-17T14:49:30;14.60;14.60
1021;DHT22;499;42.648;23.270;2022-10-17T14:52:28;14.50;14.50
1021;DHT22;499;42.648;23.270;2022-10-17T14:54:57;14.30;14.40
1021;DHT22;499;42.648;23.270;2022-10-17T14:57:27;14.10;15.30
1021;DHT22;499;42.648;23.270;2022-10-17T14:59:55;13.90;15.00
1021;DHT22;499;42.648;23.270;2022-10-17T15:02:23;13.60;16.90
1021;DHT22;499;42.648;23.270;2022-10-17T15:04:52;13.50;16.60
1021;DHT22;499;42.648;23.270;2022-10-17T15:07:19;13.40;16.60
1021;DHT22;499;42.648;23.270;2022-10-17T15:09:48;13.30;17.20
1021;DHT22;499;42.648;23.270;2022-10-17T15:12:17;13.10;18.20
1021;DHT22;499;42.648;23.270;2022-10-17T15:14:46;13.10;18.60
1021;DHT22;499;42.648;23.270;2022-10-17T15:17:16;13.00;18.70
1021;DHT22;499;42.648;23.270;2022-10-17T15:19:45;13.00;19.00
1021;DHT22;499;42.648;23.270;2022-10-17T15:22:14;12.80;19.10
1021;DHT22;499;42.648;23.270;2022-10-17T15:24:42;12.70;19.70
1021;DHT22;499;42.648;23.270;2022-10-17T15:27:14;12.60;20.10
1021;DHT22;499;42.648;23.270;2022-10-17T15:29:41;12.60;20.80
1021;DHT22;499;42.648;23.270;2022-10-17T15:32:09;12.50;20.90
1021;DHT22;499;42.648;23.270;2022-10-17T15:34:36;12.60;20.70
1021;DHT22;499;42.648;23.270;2022-10-17T15:37:06;12.50;21.10
1021;DHT22;499;42.648;23.270;2022-10-17T15:39:35;12.40;21.00
1021;DHT22;499;42.648;23.270;2022-10-17T15:42:03;12.30;22.00
1021;DHT22;499;42.648;23.270;2022-10-17T15:44:30;12.30;22.40
1021;DHT22;499;42.648;23.270;2022-10-17T15:46:57;12.20;23.80
1021;DHT22;499;42.648;23.270;2022-10-17T15:49:24;12.20;23.60
1021;DHT22;499;42.648;23.270;2022-10-17T15:51:52;12.10;23.90
1021;DHT22;499;42.648;23.270;2022-10-17T15:54:19;12.10;24.20
1021;DHT22;499;42.648;23.270;2022-10-17T15:56:51;12.00;24.60
1021;DHT22;499;42.648;23.270;2022-10-17T15:59:22;11.80;25.90
1021;DHT22;499;42.648;23.270;2022-10-17T16:01:52;11.40;28.10
1021;DHT22;499;42.648;23.270;2022-10-17T16:04:19;11.60;28.20
1021;DHT22;499;42.648;23.270;2022-10-17T16:06:48;11.50;28.10
1021;DHT22;499;42.648;23.270;2022-10-17T16:09:15;11.50;28.40
1021;DHT22;499;42.648;23.270;2022-10-17T16:11:43;11.40;28.70
1021;DHT22;499;42.648;23.270;2022-10-17T16:14:14;11.30;29.10
1021;DHT22;499;42.648;23.270;2022-10-17T16:16:41;11.20;30.00
1021;DHT22;499;42.648;23.270;2022-10-17T16:19:09;11.10;30.80
1021;DHT22;499;42.648;23.270;2022-10-17T16:21:38;11.10;31.90
1021;DHT22;499;42.648;23.270;2022-10-17T16:24:06;11.00;31.90
1021;DHT22;499;42.648;23.270;2022-10-17T16:26:35;11.00;32.30
1021;DHT22;499;42.648;23.270;2022-10-17T16:29:02;10.90;32.20
1021;DHT22;499;42.648;23.270;2022-10-17T16:31:34;10.90;31.80
1021;DHT22;499;42.648;23.270;2022-10-17T16:34:02;10.80;32.20
1021;DHT22;499;42.648;23.270;2022-10-17T16:36:31;10.80;33.80
1021;DHT22;499;42.648;23.270;2022-10-17T16:38:58;10.70;34.30
1021;DHT22;499;42.648;23.270;2022-10-17T16:41:27;10.70;34.10
1021;DHT22;499;42.648;23.270;2022-10-17T16:43:56;10.70;34.50
1021;DHT22;499;42.648;23.270;2022-10-17T16:46:25;10.60;34.40
1021;DHT22;499;42.648;23.270;2022-10-17T16:48:54;10.60;34.70